Time;durP1;ratioP1;P1;durP2;ratioP2;P2;SDS_P1;SDS_P2;PMS_P1;PMS_P2;Temp;Humidity;BMP_temperature;BMP_pressure;BME280_temperature;BME280_humidity;BME280_pressure;Samples;Min_cycle;Max_cycle;Signal;HPM_P1;HPM_P2
2022/08/02 00:00:19;;;;;;;6.10;3.10;;;;;;;;;;5055058;28;20157;-71
2022/08/02 00:02:46;;;;;;;10.32;3.65;;;;;;;;;;5053527;28;20591;-71
2022/08/02 00:05:12;;;;;;;9.77;4.07;;;;;;;;;;5055264;28;20044;-71
2022/08/02 00:07:38;;;;;;;10.15;3.88;;;;;;;;;;5037135;28;20048;-71
2022/08/02 00:10:05;;;;;;;6.30;3.20;;;;;;;;;;5053621;28;20037;-71
2022/08/02 00:12:32;;;;;;;10.25;4.45;;;;;;;;;;5036605;28;20512;-71
2022/08/02 00:14:58;;;;;;;9.10;3.63;;;;;;;;;;5054507;28;20037;-70
2022/08/02 00:17:24;;;;;;;11.13;4.25;;;;;;;;;;5036474;28;20049;-70
2022/08/02 00:19:50;;;;;;;10.05;3.92;;;;;;;;;;5036489;28;20044;-71
2022/08/02 00:22:16;;;;;;;7.95;3.58;;;;;;;;;;5053986;28;20452;-71
2022/08/02 00:24:42;;;;;;;10.45;4.05;;;;;;;;;;5036324;28;20056;-71
2022/08/02 00:27:08;;;;;;;11.40;4.13;;;;;;;;;;5036493;28;20047;-71
2022/08/02 00:29:34;;;;;;;8.13;3.45;;;;;;;;;;5035782;28;20464;-71
2022/08/02 00:32:01;;;;;;;7.80;3.15;;;;;;;;;;5054108;28;20091;-71
2022/08/02 00:34:27;;;;;;;7.57;3.63;;;;;;;;;;5053137;28;20119;-71
2022/08/02 00:36:53;;;;;;;8.02;3.30;;;;;;;;;;5035470;28;20065;-71
2022/08/02 00:39:19;;;;;;;11.32;3.33;;;;;;;;;;5054209;28;20497;-71
2022/08/02 00:41:47;;;;;;;11.40;3.72;;;;;;;;;;5036097;28;20045;-71
2022/08/02 00:44:13;;;;;;;7.13;3.15;;;;;;;;;;5035831;28;20494;-71
2022/08/02 00:46:39;;;;;;;8.73;3.90;;;;;;;;;;5053907;28;20052;-71
2022/08/02 00:49:05;;;;;;;9.30;3.30;;;;;;;;;;5036171;28;20048;-71
2022/08/02 00:51:31;;;;;;;14.07;4.15;;;;;;;;;;5035048;28;20048;-71
2022/08/02 00:53:57;;;;;;;10.63;4.20;;;;;;;;;;5053491;28;20033;-71
2022/08/02 00:56:23;;;;;;;9.75;3.80;;;;;;;;;;5035888;28;20421;-70
2022/08/02 00:58:49;;;;;;;10.35;4.40;;;;;;;;;;5034982;28;20033;-70
2022/08/02 01:01:15;;;;;;;7.90;3.83;;;;;;;;;;5053741;28;20043;-71
2022/08/02 01:03:41;;;;;;;7.93;3.55;;;;;;;;;;5035784;28;20045;-71
2022/08/02 01:06:08;;;;;;;5.95;3.00;;;;;;;;;;5034884;28;20041;-71
2022/08/02 01:08:34;;;;;;;8.07;3.35;;;;;;;;;;5019129;28;20083;-71
2022/08/02 01:11:00;;;;;;;7.47;3.38;;;;;;;;;;5053529;28;20080;-71
2022/08/02 01:13:27;;;;;;;11.88;4.00;;;;;;;;;;5035132;28;20064;-71
2022/08/02 01:15:57;;;;;;;7.13;3.40;;;;;;;;;;5035396;28;20482;-71
2022/08/02 01:18:38;;;;;;;9.55;3.67;;;;;;;;;;5052527;28;20092;-71
2022/08/02 01:21:07;;;;;;;10.23;3.92;;;;;;;;;;5053019;28;20383;-70
2022/08/02 01:23:45;;;;;;;11.13;4.25;;;;;;;;;;5035303;28;20051;-70
2022/08/02 01:26:31;;;;;;;13.73;3.60;;;;;;;;;;5034848;28;20051;-71
2022/08/02 01:29:08;;;;;;;10.00;4.20;;;;;;;;;;5035312;28;20490;-71
2022/08/02 01:31:35;;;;;;;9.38;3.70;;;;;;;;;;5035080;28;20553;-71
2022/08/02 01:34:01;;;;;;;10.07;4.05;;;;;;;;;;5034652;28;20072;-71
2022/08/02 01:36:30;;;;;;;11.82;4.00;;;;;;;;;;5052912;28;20041;-71
2022/08/02 01:38:57;;;;;;;7.47;2.97;;;;;;;;;;5018564;28;20041;-71
2022/08/02 01:41:24;;;;;;;9.60;3.92;;;;;;;;;;5034044;28;20494;-70
2022/08/02 01:43:53;;;;;;;9.02;3.10;;;;;;;;;;5034966;28;20394;-71
2022/08/02 01:46:19;;;;;;;7.50;3.53;;;;;;;;;;5018500;28;20040;-71
2022/08/02 01:48:47;;;;;;;7.18;2.97;;;;;;;;;;5051691;28;20127;-71
2022/08/02 01:51:15;;;;;;;8.77;3.42;;;;;;;;;;5052886;28;20091;-71
2022/08/02 01:53:43;;;;;;;9.60;3.90;;;;;;;;;;5051834;28;20048;-71
2022/08/02 01:56:10;;;;;;;10.60;3.28;;;;;;;;;;5052723;28;20124;-71
2022/08/02 01:58:38;;;;;;;10.77;3.58;;;;;;;;;;5034905;28;20044;-71
2022/08/02 02:01:05;;;;;;;10.18;4.00;;;;;;;;;;5033927;28;20136;-71
2022/08/02 02:03:32;;;;;;;10.15;3.60;;;;;;;;;;5034563;28;20098;-71
2022/08/02 02:05:59;;;;;;;8.52;3.72;;;;;;;;;;5034664;28;20040;-71
2022/08/02 02:08:29;;;;;;;12.95;3.00;;;;;;;;;;5017164;28;20045;-71
2022/08/02 02:10:56;;;;;;;7.32;2.92;;;;;;;;;;5034413;28;20401;-71
2022/08/02 02:13:23;;;;;;;21.73;3.75;;;;;;;;;;5052361;28;20041;-71
2022/08/02 02:15:50;;;;;;;11.68;3.78;;;;;;;;;;5033478;28;20245;-71
2022/08/02 02:18:26;;;;;;;10.45;3.72;;;;;;;;;;5034802;28;20501;-71
2022/08/02 02:20:53;;;;;;;8.23;3.70;;;;;;;;;;5051942;28;20132;-71
2022/08/02 02:23:19;;;;;;;9.35;3.60;;;;;;;;;;5033708;28;20048;-71
2022/08/02 02:25:48;;;;;;;10.55;4.07;;;;;;;;;;5051902;28;20389;-71
2022/08/02 02:28:23;;;;;;;7.78;3.80;;;;;;;;;;5034437;28;20508;-71
2022/08/02 02:30:50;;;;;;;11.05;3.38;;;;;;;;;;5033317;28;20041;-71
2022/08/02 02:33:21;;;;;;;7.13;3.72;;;;;;;;;;5034411;28;20128;-71
2022/08/02 02:35:49;;;;;;;11.73;3.55;;;;;;;;;;5033445;28;20037;-71
2022/08/02 02:38:16;;;;;;;9.10;4.13;;;;;;;;;;5052244;28;20041;-71
2022/08/02 02:40:44;;;;;;;7.70;3.90;;;;;;;;;;5052054;28;20052;-71
2022/08/02 02:43:11;;;;;;;8.07;3.55;;;;;;;;;;5051215;28;20442;-71
2022/08/02 02:45:38;;;;;;;12.40;3.88;;;;;;;;;;5051865;28;20486;-71
2022/08/02 02:48:05;;;;;;;8.18;3.50;;;;;;;;;;5033843;28;20041;-71
2022/08/02 02:50:32;;;;;;;11.70;3.95;;;;;;;;;;5033029;28;20044;-71
2022/08/02 02:52:58;;;;;;;14.20;3.55;;;;;;;;;;5033892;28;20557;-71
2022/08/02 02:55:25;;;;;;;9.65;3.95;;;;;;;;;;5051903;28;20094;-71
2022/08/02 02:57:51;;;;;;;9.27;3.55;;;;;;;;;;5053115;28;20112;-71
2022/08/02 03:00:17;;;;;;;9.38;3.53;;;;;;;;;;5038190;28;20048;-71
2022/08/02 03:02:44;;;;;;;8.65;3.28;;;;;;;;;;5021171;28;20045;-71
2022/08/02 03:05:11;;;;;;;7.90;3.25;;;;;;;;;;5037740;28;20466;-71
2022/08/02 03:07:38;;;;;;;12.98;4.53;;;;;;;;;;5037929;28;20037;-71
2022/08/02 03:10:05;;;;;;;10.50;3.45;;;;;;;;;;5038001;28;20512;-70
2022/08/02 03:12:31;;;;;;;11.10;4.32;;;;;;;;;;5036779;28;20410;-70
2022/08/02 03:14:58;;;;;;;10.38;3.70;;;;;;;;;;5055624;28;20087;-71
2022/08/02 03:17:24;;;;;;;9.43;3.67;;;;;;;;;;5037943;28;20414;-70
2022/08/02 03:19:50;;;;;;;9.25;3.58;;;;;;;;;;5020280;28;20080;-71
2022/08/02 03:22:16;;;;;;;9.23;3.22;;;;;;;;;;5055594;28;20053;-71
2022/08/02 03:24:42;;;;;;;7.18;3.58;;;;;;;;;;5037750;28;20054;-71
2022/08/02 03:27:08;;;;;;;6.95;3.28;;;;;;;;;;5037117;28;20464;-71
2022/08/02 03:29:34;;;;;;;7.55;3.30;;;;;;;;;;5037524;28;20091;-71
2022/08/02 03:32:00;;;;;;;9.63;3.67;;;;;;;;;;5054269;28;20045;-71
2022/08/02 03:34:26;;;;;;;11.68;4.78;;;;;;;;;;5037265;28;20037;-71
2022/08/02 03:36:54;;;;;;;9.43;3.75;;;;;;;;;;5037543;28;20087;-71
2022/08/02 03:39:22;;;;;;;6.75;3.33;;;;;;;;;;5020532;28;20036;-71
2022/08/02 03:41:49;;;;;;;10.95;4.28;;;;;;;;;;5020716;28;20063;-71
2022/08/02 03:44:15;;;;;;;11.35;4.10;;;;;;;;;;5055389;28;20397;-71
2022/08/02 03:46:41;;;;;;;8.68;3.97;;;;;;;;;;5019651;28;20044;-71
2022/08/02 03:49:08;;;;;;;11.02;3.97;;;;;;;;;;5055423;28;20083;-71
2022/08/02 03:51:35;;;;;;;12.45;3.75;;;;;;;;;;5037073;28;20048;-71
2022/08/02 03:54:02;;;;;;;8.25;4.72;;;;;;;;;;5054011;28;20072;-71
2022/08/02 03:56:28;;;;;;;10.15;4.38;;;;;;;;;;5036936;28;20075;-71
2022/08/02 03:59:10;;;;;;;9.88;4.05;;;;;;;;;;5037089;28;20045;-71
2022/08/02 04:01:36;;;;;;;9.48;3.67;;;;;;;;;;5036370;28;20037;-71
2022/08/02 04:04:02;;;;;;;8.52;4.43;;;;;;;;;;5036999;28;20060;-71
2022/08/02 04:06:28;;;;;;;7.50;4.20;;;;;;;;;;5054778;28;20052;-71
2022/08/02 04:08:54;;;;;;;11.77;4.47;;;;;;;;;;5034561;28;20047;-71
2022/08/02 04:11:29;;;;;;;10.68;4.22;;;;;;;;;;5054706;28;20041;-71
2022/08/02 04:13:55;;;;;;;;;;;;;;;;;;5037073;28;20040;-71
2022/08/02 04:16:22;;;;;;;9.60;4.18;;;;;;;;;;5036310;28;19963;-71
2022/08/02 04:18:51;;;;;;;6.90;4.15;;;;;;;;;;5054534;28;20045;-71
2022/08/02 04:21:18;;;;;;;7.32;3.50;;;;;;;;;;5053681;28;20551;-71
2022/08/02 04:23:45;;;;;;;8.98;4.55;;;;;;;;;;5036202;28;20111;-71
2022/08/02 04:26:12;;;;;;;16.52;4.47;;;;;;;;;;5036604;28;20051;-71
2022/08/02 04:28:38;;;;;;;7.47;3.80;;;;;;;;;;5019052;28;20478;-71
2022/08/02 04:31:05;;;;;;;8.45;4.07;;;;;;;;;;5054210;28;20409;-70
2022/08/02 04:33:31;;;;;;;9.18;4.28;;;;;;;;;;5036390;28;20033;-71
2022/08/02 04:35:57;;;;;;;9.45;4.30;;;;;;;;;;5018928;28;20167;-70
2022/08/02 04:38:23;;;;;;;8.07;4.07;;;;;;;;;;5036116;28;20123;-71
2022/08/02 04:40:51;;;;;;;8.88;3.88;;;;;;;;;;5036035;28;20040;-70
2022/08/02 04:43:17;;;;;;;6.47;3.42;;;;;;;;;;5035799;28;20068;-71
2022/08/02 04:45:44;;;;;;;9.75;3.83;;;;;;;;;;5053848;28;20044;-71
2022/08/02 04:48:10;;;;;;;9.18;3.95;;;;;;;;;;5054276;28;20052;-71
2022/08/02 04:50:36;;;;;;;13.57;4.28;;;;;;;;;;5035446;28;20041;-71
2022/08/02 04:53:02;;;;;;;7.93;3.83;;;;;;;;;;5036048;28;20111;-71
2022/08/02 04:55:28;;;;;;;9.48;3.72;;;;;;;;;;5053586;28;20041;-70
2022/08/02 04:57:54;;;;;;;9.77;4.70;;;;;;;;;;5034938;28;20120;-70
2022/08/02 05:00:21;;;;;;;10.55;4.38;;;;;;;;;;5019841;28;20072;-71
2022/08/02 05:02:47;;;;;;;9.30;3.83;;;;;;;;;;5035971;28;20189;-70
2022/08/02 05:05:14;;;;;;;8.30;3.40;;;;;;;;;;5053195;28;20402;-71
2022/08/02 05:07:40;;;;;;;8.32;3.80;;;;;;;;;;5035577;28;20037;-71
2022/08/02 05:10:06;;;;;;;11.52;3.50;;;;;;;;;;5035498;28;20040;-71
2022/08/02 05:12:32;;;;;;;11.50;4.00;;;;;;;;;;5034579;28;20044;-71
2022/08/02 05:14:58;;;;;;;6.35;3.55;;;;;;;;;;5053480;28;20074;-71
2022/08/02 05:17:24;;;;;;;9.60;4.28;;;;;;;;;;5053336;28;20040;-71
2022/08/02 05:19:50;;;;;;;12.90;4.28;;;;;;;;;;5034787;28;20107;-70
2022/08/02 05:22:16;;;;;;;8.68;3.92;;;;;;;;;;5035424;28;20135;-71
2022/08/02 05:24:42;;;;;;;13.80;4.25;;;;;;;;;;5034517;28;20045;-71
2022/08/02 05:27:08;;;;;;;11.80;4.53;;;;;;;;;;5035705;28;20041;-70
2022/08/02 05:29:34;;;;;;;9.80;3.90;;;;;;;;;;5035254;28;20049;-71
2022/08/02 05:32:00;;;;;;;8.15;3.42;;;;;;;;;;5034302;28;20049;-71
2022/08/02 05:34:26;;;;;;;7.50;3.60;;;;;;;;;;5035274;28;20171;-71
2022/08/02 05:36:52;;;;;;;9.32;4.05;;;;;;;;;;5034972;28;20049;-71
2022/08/02 05:39:18;;;;;;;9.65;3.50;;;15.10;99.90;;;;;;5052305;28;20047;-71
2022/08/02 05:41:43;;;;;;;8.15;3.65;;;15.10;99.90;;;;;;5034708;28;20153;-71
2022/08/02 05:44:09;;;;;;;10.57;4.40;;;15.30;99.90;;;;;;5035325;28;20091;-71
2022/08/02 05:46:35;;;;;;;9.55;3.92;;;15.30;99.90;;;;;;5034249;28;20080;-71
2022/08/02 05:49:02;;;;;;;8.80;3.70;;;15.30;99.90;;;;;;5052772;28;20094;-71
2022/08/02 05:51:35;;;;;;;9.82;3.67;;;15.50;99.90;;;;;;5034504;28;20045;-71
2022/08/02 05:54:13;;;;;;;9.18;3.58;;;;;;;;;;5034208;28;20041;-71
2022/08/02 05:56:49;;;;;;;10.18;3.20;;;;;;;;;;5052478;28;20044;-71
2022/08/02 05:59:34;;;;;;;8.10;3.13;;;;;;;;;;5018859;28;20041;-70
2022/08/02 06:02:04;;;;;;;12.80;3.17;;;;;;;;;;5017356;28;20053;-71
2022/08/02 06:04:41;;;;;;;6.35;2.88;;;;;;;;;;5029969;28;20051;-70
2022/08/02 06:07:09;;;;;;;7.93;3.00;;;;;;;;;;5048950;28;20044;-70
2022/08/02 06:09:35;;;;;;;8.48;2.88;;;;;;;;;;5031602;28;20041;-70
2022/08/02 06:12:02;;;;;;;10.90;3.10;;;;;;;;;;5049366;28;20401;-70
2022/08/02 06:14:31;;;;;;;10.35;3.55;;;;;;;;;;5048492;28;20394;-70
2022/08/02 06:16:57;;;;;;;8.73;2.78;;;;;;;;;;5029688;28;20478;-70
2022/08/02 06:19:24;;;;;;;6.85;2.92;;;;;;;;;;5049484;28;20045;-71
2022/08/02 06:21:50;;;;;;;7.10;2.67;;;;;;;;;;5030708;28;20061;-71
2022/08/02 06:24:18;;;;;;;7.07;2.45;;;;;;;;;;5049871;28;20128;-71
2022/08/02 06:26:44;;;;;;;6.40;2.88;;;;;;;;;;5048808;28;20045;-70
2022/08/02 06:29:12;;;;;;;8.60;2.95;;;;;;;;;;5014532;28;20048;-71
2022/08/02 06:31:40;;;;;;;4.78;2.35;;;;;;;;;;5048432;28;20055;-71
2022/08/02 06:34:06;;;;;;;9.77;2.78;;;;;;;;;;5049374;28;20186;-71
2022/08/02 06:36:39;;;;;;;9.48;3.28;;;;;;;;;;5030677;28;20041;-71
2022/08/02 06:39:11;;;;;;;9.93;3.13;;;;;;;;;;5030760;28;20124;-71
2022/08/02 06:41:42;;;;;;;7.88;2.55;;;;;;;;;;5031473;28;20498;-71
2022/08/02 06:44:08;;;;;;;10.95;3.45;;;17.70;99.90;;;;;;5048583;28;20080;-71
2022/08/02 06:46:34;;;;;;;6.75;3.05;;;;;;;;;;5031455;28;20091;-71
2022/08/02 06:49:01;;;;;;;8.18;2.20;;;;;;;;;;5030695;28;20053;-71
2022/08/02 06:51:27;;;;;;;6.72;2.58;;;;;;;;;;5030767;28;20464;-71
2022/08/02 06:53:53;;;;;;;8.23;2.67;;;;;;;;;;5048699;28;20490;-71
2022/08/02 06:56:20;;;;;;;6.85;2.20;;;;;;;;;;5014344;28;20066;-71
2022/08/02 06:58:46;;;;;;;8.15;2.22;;;;;;;;;;5031086;28;20045;-71
2022/08/02 07:01:13;;;;;;;5.95;2.75;;;;;;;;;;5030732;28;20132;-71
2022/08/02 07:03:39;;;;;;;7.88;2.10;;;;;;;;;;5046964;28;20164;-71
2022/08/02 07:06:08;;;;;;;7.55;2.00;;;;;;;;;;5048908;28;20115;-71
2022/08/02 07:08:37;;;;;;;5.38;2.08;;;;;;;;;;5031208;28;20051;-71
2022/08/02 07:11:03;;;;;;;5.35;2.15;;;;;;;;;;5030318;28;20049;-72
2022/08/02 07:13:29;;;;;;;6.50;1.90;;;;;;;;;;5031192;28;20040;-71
2022/08/02 07:15:55;;;;;;;6.10;1.88;;;18.50;99.90;;;;;;5028712;28;20447;-71
2022/08/02 07:18:22;;;;;;;6.10;1.85;;;18.50;99.90;;;;;;5030207;28;20095;-71
2022/08/02 07:20:49;;;;;;;5.75;2.22;;;;;;;;;;5027736;28;20075;-71
2022/08/02 07:23:15;;;;;;;5.80;2.13;;;;;;;;;;5011677;28;20053;-71
2022/08/02 07:25:41;;;;;;;7.03;2.17;;;;;;;;;;5029727;28;20045;-71
2022/08/02 07:28:14;;;;;;;5.55;2.00;;;;;;;;;;5048288;28;20037;-70
2022/08/02 07:30:40;;;;;;;7.40;2.05;;;;;;;;;;5030847;28;20536;-71
2022/08/02 07:33:07;;;;;;;6.95;1.60;;;;;;;;;;5030154;28;20049;-71
2022/08/02 07:35:36;;;;;;;9.20;2.25;;;;;;;;;;5030561;28;20110;-72
2022/08/02 07:38:02;;;;;;;7.78;2.00;;;19.40;99.90;;;;;;5030842;28;20041;-72
2022/08/02 07:40:28;;;;;;;7.55;2.10;;;19.60;99.90;;;;;;5029499;28;20264;-73
2022/08/02 07:42:55;;;;;;;5.15;1.60;;;19.80;99.90;;;;;;5028919;28;20037;-72
2022/08/02 07:45:22;;;;;;;7.13;1.77;;;19.60;99.90;;;;;;5051905;28;20116;-71
2022/08/02 07:47:49;;;;;;;6.45;1.70;;;19.60;99.90;;;;;;5052245;28;20044;-71
2022/08/02 07:50:16;;;;;;;3.08;1.23;;;19.70;99.90;;;;;;5052133;28;20542;-71
2022/08/02 07:52:43;;;;;;;7.30;1.60;;;19.80;99.90;;;;;;5050674;28;20037;-71
2022/08/02 07:55:11;;;;;;;4.50;1.55;;;19.70;99.90;;;;;;5045804;28;20044;-72
2022/08/02 07:57:38;;;;;;;4.30;1.48;;;19.90;99.90;;;;;;5029083;28;20059;-72
2022/08/02 08:00:05;;;;;;;5.80;2.03;;;;;;;;;;5031253;28;20135;-72
2022/08/02 08:02:31;;;;;;;6.88;1.83;;;;;;;;;;5035484;28;20493;-72
2022/08/02 08:04:57;;;;;;;7.32;2.20;;;;;;;;;;5034858;28;20047;-72
2022/08/02 08:07:24;;;;;;;5.70;2.30;;;19.80;99.90;;;;;;5033089;28;20083;-71
2022/08/02 08:09:49;;;;;;;4.25;1.50;;;20.00;99.90;;;;;;5034223;28;20052;-73
2022/08/02 08:12:16;;;;;;;6.47;1.98;;;;;;;;;;5052071;28;20033;-71
2022/08/02 08:14:42;;;;;;;4.10;1.80;;;;;;;;;;5050939;28;20497;-72
2022/08/02 08:17:08;;;;;;;4.60;1.40;;;20.20;99.90;;;;;;5050582;28;20123;-72
2022/08/02 08:19:34;;;;;;;6.82;1.58;;;;;;;;;;5052282;28;20051;-72
2022/08/02 08:22:00;;;;;;;5.00;1.85;;;;;;;;;;5051144;28;20122;-72
2022/08/02 08:24:27;;;;;;;5.10;1.92;;;;;;;;;;5051956;28;20152;-72
2022/08/02 08:26:54;;;;;;;4.65;2.05;;;;;;;;;;5052407;28;20119;-72
2022/08/02 08:29:20;;;;;;;4.90;2.15;;;;;;;;;;5033388;28;20060;-72
2022/08/02 08:31:46;;;;;;;5.88;1.73;;;;;;;;;;5050973;28;20043;-72
2022/08/02 08:34:12;;;;;;;5.05;1.70;;;;;;;;;;5051735;28;20045;-72
2022/08/02 08:36:38;;;;;;;3.58;1.35;;;;;;;;;;5032954;28;20041;-67
2022/08/02 08:39:05;;;;;;;4.55;1.55;;;;;;;;;;5051223;28;20568;-67
2022/08/02 08:41:31;;;;;;;6.43;2.08;;;;;;;;;;5017001;28;20444;-66
2022/08/02 08:43:58;;;;;;;6.10;1.63;;;;;;;;;;5051641;28;20048;-66
2022/08/02 08:46:28;;;;;;;5.35;1.58;;;;;;;;;;5016836;28;20056;-66
2022/08/02 08:49:03;;;;;;;5.07;2.10;;;;;;;;;;5051663;28;20049;-67
2022/08/02 08:51:42;;;;;;;5.28;2.20;;;;;;;;;;5041094;28;20045;-67
2022/08/02 08:54:12;;;;;;;5.70;1.90;;;;;;;;;;5033763;28;20447;-67
2022/08/02 08:56:39;;;;;;;5.93;1.90;;;;;;;;;;5041717;28;20033;-67
2022/08/02 08:59:05;;;;;;;5.75;2.13;;;;;;;;;;5042108;28;20041;-67
2022/08/02 09:01:31;;;;;;;5.47;1.98;;;;;;;;;;5050984;28;20048;-67
2022/08/02 09:03:58;;;;;;;7.88;2.45;;;;;;;;;;5032189;28;20041;-67
2022/08/02 09:06:24;;;;;;;6.85;2.35;;;;;;;;;;5033009;28;20063;-67
2022/08/02 09:08:50;;;;;;;6.93;2.00;;;21.70;99.90;;;;;;5050605;28;20041;-68
2022/08/02 09:11:23;;;;;;;5.18;2.15;;;21.70;99.90;;;;;;5032130;28;20122;-67
2022/08/02 09:13:58;;;;;;;6.57;2.63;;;21.80;99.90;;;;;;5029406;28;20044;-68
2022/08/02 09:16:30;;;;;;;5.22;2.10;;;;;;;;;;5035623;28;20036;-68
2022/08/02 09:18:56;;;;;;;8.00;2.70;;;;;;;;;;5050951;28;20064;-72
2022/08/02 09:21:23;;;;;;;4.28;2.10;;;;;;;;;;5032808;28;20067;-71
2022/08/02 09:23:50;;;;;;;5.65;2.35;;;;;;;;;;5015737;28;20087;-71
2022/08/02 09:26:21;;;;;;;6.82;2.58;;;;;;;;;;5016856;28;20547;-70
2022/08/02 09:28:51;;;;;;;6.50;2.65;;;;;;;;;;5049967;28;20120;-67
2022/08/02 09:31:23;;;;;;;7.15;2.05;;;22.50;99.90;;;;;;5034091;28;20117;-71
2022/08/02 09:33:57;;;;;;;7.57;3.00;;;22.30;99.90;;;;;;5031684;28;20068;-73
2022/08/02 09:36:24;;;;;;;5.95;2.55;;;22.30;99.90;;;;;;5049464;28;20032;-70
2022/08/02 09:38:56;;;;;;;7.43;2.40;;;22.60;99.90;;;;;;5031875;28;20044;-69
2022/08/02 09:41:25;;;;;;;6.43;2.33;;;22.80;99.90;;;;;;5052173;28;20397;-70
2022/08/02 09:43:51;;;;;;;6.05;3.03;;;23.00;99.90;;;;;;5052841;28;20115;-70
2022/08/02 09:46:25;;;;;;;5.40;2.90;;;23.00;99.90;;;;;;5034971;28;20041;-70
2022/08/02 09:48:52;;;;;;;4.88;3.00;;;23.10;99.90;;;;;;5034957;28;20045;-70
2022/08/02 09:51:24;;;;;;;7.13;2.97;;;23.10;99.90;;;;;;5052905;28;20084;-70
2022/08/02 09:53:56;;;;;;;6.93;2.97;;;23.10;99.90;;;;;;5051866;28;20513;-70
2022/08/02 09:56:23;;;;;;;8.05;3.22;;;23.10;99.90;;;;;;5034824;28;20048;-70
2022/08/02 09:58:52;;;;;;;9.18;3.70;;;23.00;99.90;;;;;;5051844;28;20420;-70
2022/08/02 10:01:18;;;;;;;8.25;3.50;;;22.90;99.90;;;;;;5052853;28;20043;-70
2022/08/02 10:03:59;;;;;;;6.35;3.70;;;22.80;99.90;;;;;;5052095;28;20052;-70
2022/08/02 10:06:25;;;;;;;10.20;4.05;;;22.80;99.90;;;;;;5033803;28;20086;-70
2022/08/02 10:08:52;;;;;;;6.85;3.38;;;22.70;99.90;;;;;;5034679;28;20049;-70
2022/08/02 10:11:22;;;;;;;7.10;3.13;;;22.70;99.90;;;;;;5018242;28;20044;-70
2022/08/02 10:13:48;;;;;;;6.07;3.30;;;22.80;99.90;;;;;;5051499;28;20037;-70
2022/08/02 10:16:15;;;;;;;6.63;3.10;;;;;;;;;;5034643;28;20119;-70
2022/08/02 10:18:41;;;;;;;8.98;4.30;;;23.70;99.90;;;;;;5052404;28;20374;-70
2022/08/02 10:21:18;;;;;;;12.07;5.78;;;23.60;99.90;;;;;;5033660;28;20091;-70
2022/08/02 10:23:47;;;;;;;7.80;4.30;;;23.80;99.90;;;;;;5033993;28;20053;-72
2022/08/02 10:26:18;;;;;;;11.23;4.95;;;23.80;99.90;;;;;;5052406;28;20041;-72
2022/08/02 10:28:48;;;;;;;10.77;5.18;;;23.90;99.90;;;;;;5050970;28;20056;-72
2022/08/02 10:31:22;;;;;;;6.68;4.30;;;23.90;99.90;;;;;;5052479;28;20094;-72
2022/08/02 10:33:51;;;;;;;9.03;4.93;;;23.90;99.90;;;;;;5052146;28;20060;-71
2022/08/02 10:36:19;;;;;;;7.63;5.13;;;23.80;99.90;;;;;;5051650;28;20624;-71
2022/08/02 10:38:45;;;;;;;8.43;4.53;;;24.00;99.90;;;;;;5051702;28;20456;-71
2022/08/02 10:41:11;;;;;;;8.73;3.83;;;23.90;99.90;;;;;;5033458;28;20045;-71
2022/08/02 10:43:37;;;;;;;7.85;3.95;;;24.00;99.90;;;;;;5034011;28;20418;-71
2022/08/02 10:46:22;;;;;;;8.63;4.03;;;24.60;99.90;;;;;;5033981;28;20128;-71
2022/08/02 10:49:12;;;;;;;8.35;5.18;;;23.50;99.90;;;;;;5016936;28;20049;-71
2022/08/02 10:51:54;;;;;;;8.50;3.55;;;24.50;99.90;;;;;;5033974;28;20041;-71
2022/08/02 10:54:22;;;;;;;7.47;3.00;;;24.10;99.90;;;;;;5034483;28;20049;-71
2022/08/02 10:56:49;;;;;;;8.85;4.03;;;24.30;99.90;;;;;;5033269;28;20041;-72
2022/08/02 10:59:32;;;;;;;5.93;3.40;;;;;;;;;;5052162;28;20037;-71
2022/08/02 11:02:02;;;;;;;7.90;5.43;;;;;;;;;;5017301;28;20094;-71
2022/08/02 11:04:29;;;;;;;9.23;5.85;;;;;;;;;;5034131;28;20051;-71
2022/08/02 11:07:08;;;;;;;10.43;5.18;;;;;;;;;;5034110;28;20044;-72
2022/08/02 11:09:34;;;;;;;8.90;5.50;;;;;;;;;;5033100;28;20041;-71
2022/08/02 11:12:05;;;;;;;9.43;5.20;;;;;;;;;;5033636;28;20045;-71
2022/08/02 11:14:32;;;;;;;8.90;6.55;;;;;;;;;;5051566;28;20040;-71
2022/08/02 11:17:00;;;;;;;10.23;7.60;;;;;;;;;;5050709;28;20502;-70
2022/08/02 11:19:26;;;;;;;17.05;8.90;;;;;;;;;;5037194;28;20373;-71
2022/08/02 11:22:06;;;;;;;14.88;9.98;;;;;;;;;;5055346;28;20114;-71
2022/08/02 11:24:36;;;;;;;16.02;10.75;;;;;;;;;;5054767;28;20064;-71
2022/08/02 11:27:03;;;;;;;16.30;10.25;;;;;;;;;;5020835;28;20048;-71
2022/08/02 11:29:39;;;;;;;11.48;9.35;;;;;;;;;;5037762;28;20385;-71
2022/08/02 11:32:06;;;;;;;15.48;9.70;;;;;;;;;;5036766;28;20053;-71
2022/08/02 11:34:32;;;;;;;13.60;9.80;;;;;;;;;;5037735;28;20370;-70
2022/08/02 11:36:59;;;;;;;15.90;10.65;;;;;;;;;;5055095;28;20497;-71
2022/08/02 11:39:25;;;;;;;13.23;8.93;;;;;;;;;;5036469;28;20486;-71
2022/08/02 11:41:51;;;;;;;13.73;10.35;;;;;;;;;;5021019;28;20044;-70
2022/08/02 11:44:17;;;;;;;16.33;10.45;;;;;;;;;;5054802;28;20037;-71
2022/08/02 11:46:43;;;;;;;14.85;9.55;;;23.70;99.90;;;;;;5037046;28;20119;-71
2022/08/02 11:49:17;;;;;;;12.35;9.23;;;;;;;;;;5037624;28;20083;-71
2022/08/02 11:51:51;;;;;;;15.65;10.80;;;;;;;;;;5054085;28;20391;-70
2022/08/02 11:54:24;;;;;;;18.63;11.68;;;;;;;;;;5037169;28;20055;-70
2022/08/02 11:56:51;;;;;;;13.75;9.13;;;;;;;;;;5020437;28;20049;-70
2022/08/02 11:59:17;;;;;;;13.20;9.75;;;;;;;;;;5036510;28;20051;-70
2022/08/02 12:01:43;;;;;;;13.98;10.60;;;;;;;;;;5054665;28;20048;-71
2022/08/02 12:04:09;;;;;;;17.33;10.07;;;;;;;;;;5054923;28;20041;-71
2022/08/02 12:06:35;;;;;;;16.63;11.75;;;;;;;;;;5053878;28;20444;-71
2022/08/02 12:09:08;;;;;;;16.85;10.50;;;;;;;;;;5054393;28;20516;-70
2022/08/02 12:11:37;;;;;;;14.48;11.25;;;;;;;;;;5036660;28;20456;-70
2022/08/02 12:14:04;;;;;;;13.55;11.07;;;;;;;;;;5053716;28;20044;-70
2022/08/02 12:19:25;;;;;;;18.85;12.85;;;;;;;;;;5054525;28;20524;-70
2022/08/02 12:22:10;;;;;;;14.43;12.18;;;;;;;;;;5036293;28;20065;-71
2022/08/02 12:24:37;;;;;;;15.93;11.25;;;;;;;;;;5054472;28;20107;-71
2022/08/02 12:27:03;;;;;;;17.70;11.43;;;;;;;;;;5035626;28;20132;-70
2022/08/02 12:29:31;;;;;;;17.02;13.02;;;23.00;99.90;;;;;;5053115;28;20116;-71
2022/08/02 12:31:57;;;;;;;18.95;12.77;;;22.70;99.90;;;;;;5036340;28;20053;-70
2022/08/02 12:34:24;;;;;;;15.80;11.27;;;23.00;99.90;;;;;;5035596;28;20379;-70
2022/08/02 12:37:09;;;;;;;17.80;12.50;;;22.70;99.90;;;;;;5036566;28;20447;-70
2022/08/02 12:39:39;;;;;;;17.85;11.57;;;22.60;99.90;;;;;;5036257;28;20044;-70
2022/08/02 12:42:06;;;;;;;15.70;10.93;;;22.70;99.90;;;;;;5035383;28;20080;-70
2022/08/02 12:44:32;;;;;;;16.92;11.82;;;22.40;99.90;;;;;;5053983;28;20045;-70
2022/08/02 12:47:16;;;;;;;22.80;14.13;;;22.10;99.90;;;;;;5054009;28;20076;-71
2022/08/02 12:49:42;;;;;;;18.47;12.43;;;23.40;99.90;;;;;;5018792;28;20052;-71
2022/08/02 12:52:20;;;;;;;15.70;12.65;;;22.60;99.90;;;;;;5053833;28;20051;-70
2022/08/02 12:54:47;;;;;;;18.58;14.07;;;22.30;99.90;;;;;;5034698;28;20127;-70
2022/08/02 12:57:15;;;;;;;17.83;12.18;;;22.50;99.90;;;;;;5036287;28;20072;-70
2022/08/02 12:59:45;;;;;;;17.85;12.18;;;22.30;99.90;;;;;;5052361;28;20077;-71
2022/08/02 13:02:12;;;;;;;18.50;11.52;;;;;;;;;;5022425;28;20041;-67
2022/08/02 13:04:38;;;;;;;17.05;12.02;;;22.40;99.90;;;;;;5016402;28;20049;-67
2022/08/02 13:07:05;;;;;;;16.40;11.20;;;22.20;99.90;;;;;;5047938;28;20087;-70
2022/08/02 13:09:44;;;;;;;16.38;11.90;;;22.50;99.90;;;;;;5014123;28;20091;-70
2022/08/02 13:12:10;;;;;;;16.42;11.55;;;;;;;;;;5030451;28;20036;-70
2022/08/02 13:14:37;;;;;;;15.05;11.73;;;22.60;99.90;;;;;;5047319;28;20117;-70
2022/08/02 13:17:03;;;;;;;16.25;11.65;;;22.70;99.90;;;;;;5049312;28;20867;-70
2022/08/02 13:19:29;;;;;;;16.70;12.68;;;;;;;;;;5017563;28;20397;-70
2022/08/02 13:21:55;;;;;;;18.33;12.00;;;;;;;;;;5037468;28;20061;-70
2022/08/02 13:24:21;;;;;;;16.25;12.55;;;22.90;99.90;;;;;;5049091;28;20080;-70
2022/08/02 13:26:47;;;;;;;17.88;13.77;;;23.00;99.90;;;;;;5032772;28;20067;-70
2022/08/02 13:29:13;;;;;;;16.13;12.20;;;22.90;99.90;;;;;;5048845;28;20083;-71
2022/08/02 13:31:39;;;;;;;17.17;12.82;;;22.80;99.90;;;;;;5030550;28;20041;-71
2022/08/02 13:34:06;;;;;;;19.85;12.18;;;22.90;99.90;;;;;;5045455;28;20539;-71
2022/08/02 13:36:34;;;;;;;16.35;13.90;;;22.80;99.90;;;;;;5041612;28;20494;-70
2022/08/02 13:39:00;;;;;;;18.67;12.85;;;22.50;99.90;;;;;;5041822;28;20048;-71
2022/08/02 13:41:26;;;;;;;17.15;13.38;;;22.70;99.90;;;;;;5029417;28;20085;-70
2022/08/02 13:43:52;;;;;;;18.23;13.35;;;;;;;;;;5029460;28;20494;-70
2022/08/02 13:46:19;;;;;;;19.55;13.25;;;22.70;99.90;;;;;;5022818;28;20123;-70
2022/08/02 13:48:45;;;;;;;19.73;12.10;;;;;;;;;;5040943;28;20040;-70
2022/08/02 13:51:11;;;;;;;14.50;11.60;;;;;;;;;;5068918;28;20114;-71
2022/08/02 13:53:40;;;;;;;18.13;12.18;;;23.00;99.90;;;;;;5049974;28;20045;-71
2022/08/02 13:56:06;;;;;;;15.60;11.07;;;23.10;99.90;;;;;;5027615;28;20037;-71
2022/08/02 13:58:32;;;;;;;17.90;11.65;;;23.30;99.90;;;;;;5058361;28;20035;-71
2022/08/02 14:00:58;;;;;;;13.68;9.23;;;23.30;99.90;;;;;;5047481;28;20048;-71
2022/08/02 14:03:24;;;;;;;13.02;8.60;;;;;;;;;;5069663;28;20052;-71
2022/08/02 14:05:50;;;;;;;19.02;9.93;;;;;;;;;;5049190;28;20044;-71
2022/08/02 14:08:17;;;;;;;17.05;9.63;;;23.50;99.90;;;;;;5069838;28;20052;-71